Time;durP1;ratioP1;P1;durP2;ratioP2;P2;SDS_P1;SDS_P2;PMS_P1;PMS_P2;Temp;Humidity;BMP_temperature;BMP_pressure;BME280_temperature;BME280_humidity;BME280_pressure;Samples;Min_cycle;Max_cycle;Signal;HPM_P1;HPM_P2
2022/08/24 00:02:22;;;;;;;67.57;4.40;;;23.00;31.30;;;;;;5089087;28;20414;-83
2022/08/24 00:04:49;;;;;;;67.90;4.60;;;22.90;32.40;;;;;;5088235;28;20401;-81
2022/08/24 00:07:14;;;;;;;67.10;4.13;;;22.90;33.20;;;;;;5089031;28;20567;-81
2022/08/24 00:09:41;;;;;;;68.57;4.30;;;22.80;33.50;;;;;;5088948;28;20442;-81
2022/08/24 00:12:07;;;;;;;70.23;4.30;;;22.80;34.50;;;;;;5088394;28;20167;-81
2022/08/24 00:14:33;;;;;;;68.33;4.77;;;22.80;34.70;;;;;;5071732;28;20398;-81
2022/08/24 00:16:59;;;;;;;69.57;4.97;;;22.80;34.70;;;;;;5088591;28;20446;-81
2022/08/24 00:19:27;;;;;;;67.67;4.40;;;22.80;35.70;;;;;;5088579;28;20226;-81
2022/08/24 00:21:52;;;;;;;69.10;4.93;;;22.70;36.50;;;;;;5088871;28;20917;-80
2022/08/24 00:24:19;;;;;;;67.67;4.57;;;22.70;37.00;;;;;;5071264;28;20414;-81
2022/08/24 00:26:45;;;;;;;68.27;5.20;;;22.70;37.90;;;;;;5088851;28;20180;-81
2022/08/24 00:29:14;;;;;;;69.23;5.40;;;22.70;38.00;;;;;;5071110;28;20407;-82
2022/08/24 00:31:40;;;;;;;69.13;5.23;;;22.70;38.70;;;;;;5088985;28;20441;-81
2022/08/24 00:34:05;;;;;;;69.87;5.70;;;22.60;38.90;;;;;;5087901;28;20442;-81
2022/08/24 00:36:32;;;;;;;67.37;5.40;;;22.60;39.20;;;;;;5087534;28;20195;-82
2022/08/24 00:38:58;;;;;;;68.40;4.63;;;22.60;40.00;;;;;;5087914;28;20160;-83
2022/08/24 00:41:24;;;;;;;66.80;4.93;;;22.60;39.60;;;;;;5088483;28;20751;-81
2022/08/24 00:43:55;;;;;;;67.57;6.13;;;22.50;40.50;;;;;;5087950;28;20202;-82
2022/08/24 00:46:20;;;;;;;69.13;4.60;;;22.50;38.90;;;;;;5070371;28;20430;-81
2022/08/24 00:48:50;;;;;;;73.93;5.50;;;22.50;38.30;;;;;;5087768;28;20413;-82
2022/08/24 00:51:29;;;;;;;73.37;5.80;;;22.50;38.30;;;;;;5070446;28;20663;-82
2022/08/24 00:54:00;;;;;;;67.60;5.00;;;22.50;39.00;;;;;;5069747;28;20402;-81
2022/08/24 00:56:31;;;;;;;68.93;4.63;;;22.40;37.80;;;;;;5087793;28;20458;-82
2022/08/24 00:59:19;;;;;;;69.90;5.10;;;22.50;37.50;;;;;;5069868;28;20402;-82
2022/08/24 01:01:46;;;;;;;76.03;6.20;;;22.40;38.10;;;;;;5068649;28;20411;-82
2022/08/24 01:04:19;;;;;;;70.87;7.23;;;22.10;46.80;;;;;;5087294;28;20431;-82
2022/08/24 01:06:47;;;;;;;72.50;7.23;;;22.00;49.00;;;;;;5069584;28;20434;-81
2022/08/24 01:09:13;;;;;;;69.90;7.70;;;22.10;47.80;;;;;;5087237;28;20425;-81
2022/08/24 01:11:39;;;;;;;70.57;7.10;;;22.20;46.40;;;;;;5087977;28;20450;-81
2022/08/24 01:14:06;;;;;;;72.23;7.67;;;22.20;45.20;;;;;;5069258;28;20236;-82
2022/08/24 01:19:37;;;;;;;72.17;7.90;;;22.30;46.50;;;;;;5087483;28;20856;-81
2022/08/24 01:22:08;;;;;;;73.00;7.77;;;22.20;47.10;;;;;;5068661;28;20412;-81
2022/08/24 01:24:35;;;;;;;70.10;6.53;;;22.20;46.00;;;;;;5087731;28;20407;-81
2022/08/24 01:27:02;;;;;;;78.93;7.37;;;22.20;45.90;;;;;;5086897;28;20451;-81
2022/08/24 01:29:30;;;;;;;73.40;8.90;;;22.20;46.30;;;;;;5069380;28;20414;-82
2022/08/24 01:31:56;;;;;;;72.70;7.17;;;22.20;47.90;;;;;;5087463;28;20398;-81
2022/08/24 01:34:22;;;;;;;69.80;8.20;;;22.20;47.60;;;;;;5087566;28;20421;-82
2022/08/24 01:36:53;;;;;;;71.67;8.17;;;22.10;48.80;;;;;;5087994;28;20419;-81
2022/08/24 01:39:23;;;;;;;69.87;8.20;;;22.10;49.40;;;;;;5087345;28;20623;-81
2022/08/24 01:41:50;;;;;;;69.20;8.57;;;22.10;50.00;;;;;;5069464;28;20410;-81
2022/08/24 01:44:18;;;;;;;70.93;9.07;;;22.10;50.30;;;;;;5068989;28;20413;-81
2022/08/24 01:46:48;;;;;;;73.20;9.40;;;22.00;50.20;;;;;;5086704;28;20472;-81
2022/08/24 01:49:15;;;;;;;68.20;7.80;;;22.00;50.10;;;;;;5087325;28;20460;-82
2022/08/24 01:51:44;;;;;;;67.37;7.57;;;22.00;50.60;;;;;;5068253;28;20449;-81
2022/08/24 01:54:11;;;;;;;75.77;9.83;;;21.90;51.50;;;;;;5087260;28;20394;-81
2022/08/24 01:56:37;;;;;;;73.40;10.13;;;21.90;52.60;;;;;;5069652;28;20426;-81
2022/08/24 01:59:05;;;;;;;69.57;9.87;;;21.90;52.80;;;;;;5087246;28;20401;-82
2022/08/24 02:01:36;;;;;;;68.70;9.40;;;21.90;50.90;;;;;;5086203;28;20774;-81
2022/08/24 02:04:05;;;;;;;70.27;10.20;;;21.80;52.40;;;;;;5086873;28;20463;-81
2022/08/24 02:06:31;;;;;;;74.10;12.90;;;21.80;53.80;;;;;;5086785;28;20426;-81
2022/08/24 02:08:58;;;;;;;72.07;11.93;;;21.70;55.50;;;;;;5069004;28;20493;-83
2022/08/24 02:11:24;;;;;;;69.90;9.70;;;21.80;54.90;;;;;;5086396;28;20837;-81
2022/08/24 02:13:49;;;;;;;68.37;9.60;;;21.80;54.70;;;;;;5086620;28;20403;-81
2022/08/24 02:16:15;;;;;;;70.73;10.77;;;21.70;54.40;;;;;;5086380;28;20994;-81
2022/08/24 02:18:41;;;;;;;75.23;12.73;;;21.70;54.20;;;;;;5069057;28;20192;-81
2022/08/24 02:21:09;;;;;;;69.03;11.40;;;21.70;55.10;;;;;;5086843;28;20477;-82
2022/08/24 02:23:36;;;;;;;74.27;12.00;;;21.70;55.60;;;;;;5086030;28;20465;-81
2022/08/24 02:26:04;;;;;;;70.10;10.90;;;21.60;56.30;;;;;;5086152;28;20410;-81
2022/08/24 02:28:29;;;;;;;71.70;11.50;;;21.60;55.00;;;;;;5086736;28;20413;-81
2022/08/24 02:30:55;;;;;;;69.17;11.20;;;21.60;55.80;;;;;;5085465;28;20445;-81
2022/08/24 02:33:22;;;;;;;70.17;10.93;;;21.50;57.40;;;;;;5086388;28;20172;-80
2022/08/24 02:35:51;;;;;;;70.97;11.33;;;21.60;57.60;;;;;;5086353;28;20175;-82
2022/08/24 02:38:17;;;;;;;70.77;11.97;;;21.60;57.60;;;;;;5068295;28;20417;-82
2022/08/24 02:40:43;;;;;;;70.07;11.70;;;21.50;57.20;;;;;;5088044;28;20402;-79
2022/08/24 02:43:09;;;;;;;68.90;9.70;;;21.50;57.20;;;;;;5068214;28;20432;-81
2022/08/24 02:45:40;;;;;;;72.83;11.07;;;21.50;57.30;;;;;;5067745;28;20418;-81
2022/08/24 02:48:06;;;;;;;70.80;10.57;;;21.40;58.60;;;;;;5085556;28;20211;-82
2022/08/24 02:50:31;;;;;;;69.23;10.30;;;21.40;59.00;;;;;;5084859;28;20446;-81
2022/08/24 02:52:57;;;;;;;69.47;10.27;;;21.40;59.00;;;;;;5086251;28;20168;-81
2022/08/24 02:55:23;;;;;;;71.13;9.30;;;21.40;59.30;;;;;;5068058;28;20203;-81
2022/08/24 02:57:49;;;;;;;68.50;9.40;;;21.40;60.10;;;;;;5085752;28;20186;-81
2022/08/24 03:00:17;;;;;;;70.63;9.47;;;21.40;62.30;;;;;;5085229;28;20191;-81
2022/08/24 03:02:44;;;;;;;67.70;7.93;;;21.30;62.20;;;;;;5066859;28;20444;-81
2022/08/24 03:05:10;;;;;;;68.27;8.93;;;21.30;64.10;;;;;;5085807;28;20406;-81
2022/08/24 03:07:35;;;;;;;71.80;8.33;;;21.30;62.30;;;;;;5067426;28;20444;-82
2022/08/24 03:10:02;;;;;;;68.77;7.47;;;21.30;64.50;;;;;;5086091;28;20195;-82
2022/08/24 03:12:28;;;;;;;73.53;8.43;;;21.30;64.20;;;;;;5085746;28;20168;-80
2022/08/24 03:14:54;;;;;;;69.77;8.40;;;21.20;64.10;;;;;;5068109;28;20410;-81
2022/08/24 03:17:20;;;;;;;71.33;8.50;;;21.20;64.80;;;;;;5068252;28;20438;-81
2022/08/24 03:19:46;;;;;;;70.20;7.77;;;21.20;66.30;;;;;;5067867;28;20182;-81
2022/08/24 03:22:12;;;;;;;67.50;6.63;;;21.10;68.00;;;;;;5086196;28;20577;-81
2022/08/24 03:24:38;;;;;;;71.30;6.47;;;21.10;67.40;;;;;;5069442;28;20406;-81
2022/08/24 03:27:05;;;;;;;68.27;6.90;;;21.10;67.60;;;;;;5067688;28;20512;-81
2022/08/24 03:29:32;;;;;;;68.17;7.60;;;21.10;68.40;;;;;;5085944;28;20408;-81
2022/08/24 03:31:58;;;;;;;70.70;6.30;;;21.10;68.90;;;;;;5086115;28;20409;-81
2022/08/24 03:34:23;;;;;;;72.97;7.07;;;21.00;71.10;;;;;;5153354;22;20492;-84
2022/08/24 03:36:49;;;;;;;66.90;6.30;;;21.00;71.50;;;;;;5076998;28;20445;-84
2022/08/24 03:39:15;;;;;;;67.77;6.50;;;21.00;70.20;;;;;;5076830;28;20221;-84
2022/08/24 03:41:41;;;;;;;69.20;6.57;;;21.10;69.30;;;;;;5077119;28;20195;-84
2022/08/24 03:44:07;;;;;;;67.60;5.73;;;21.00;72.00;;;;;;5076909;28;20402;-84
2022/08/24 03:46:35;;;;;;;66.93;6.43;;;21.00;72.90;;;;;;5076797;28;20191;-84
2022/08/24 03:49:04;;;;;;;68.40;5.93;;;21.00;73.80;;;;;;5077027;28;20171;-84
2022/08/24 03:51:30;;;;;;;68.57;6.20;;;20.90;74.50;;;;;;5058688;28;20450;-84
2022/08/24 03:53:58;;;;;;;69.60;5.80;;;20.90;75.30;;;;;;5076650;28;20884;-84
2022/08/24 03:56:24;;;;;;;66.77;5.53;;;20.90;76.50;;;;;;5058902;28;20434;-84
2022/08/24 03:58:50;;;;;;;68.60;6.00;;;20.80;77.40;;;;;;5058970;28;20403;-84
2022/08/24 04:01:16;;;;;;;69.77;6.20;;;20.80;76.40;;;;;;5058720;28;20429;-84
2022/08/24 04:03:44;;;;;;;69.00;5.67;;;20.80;78.70;;;;;;5076688;28;20165;-84
2022/08/24 04:06:12;;;;;;;68.90;5.80;;;20.80;78.50;;;;;;5076814;28;21141;-84
2022/08/24 04:08:38;;;;;;;72.43;6.27;;;20.80;78.30;;;;;;5059472;28;20766;-84
2022/08/24 04:11:05;;;;;;;66.37;5.57;;;20.70;80.00;;;;;;5077627;28;20444;-84
2022/08/24 04:13:30;;;;;;;69.57;5.93;;;20.80;79.40;;;;;;5077530;28;20398;-84
2022/08/24 04:16:07;;;;;;;68.70;7.27;;;20.70;78.70;;;;;;5080320;28;20443;-84
2022/08/24 04:18:33;;;;;;;71.27;7.07;;;20.70;78.80;;;;;;5061931;28;20394;-84
2022/08/24 04:20:59;;;;;;;67.27;6.40;;;20.70;78.10;;;;;;5080206;28;20478;-84
2022/08/24 04:23:25;;;;;;;66.60;6.40;;;20.70;78.50;;;;;;5080672;28;20432;-84
2022/08/24 04:25:51;;;;;;;69.33;7.13;;;20.60;79.70;;;;;;5081018;28;20906;-85
2022/08/24 04:28:18;;;;;;;68.50;6.07;;;20.70;79.90;;;;;;5069409;28;20198;-84
2022/08/24 04:30:49;;;;;;;70.20;6.67;;;20.60;80.10;;;;;;5069626;28;20195;-84
2022/08/24 04:33:16;;;;;;;69.70;6.07;;;20.50;81.60;;;;;;5087877;28;20416;-85
2022/08/24 04:35:46;;;;;;;66.37;6.23;;;20.50;82.90;;;;;;5086822;28;20425;-84
2022/08/24 04:38:13;;;;;;;69.90;6.00;;;20.60;80.10;;;;;;5086614;28;20431;-84
2022/08/24 04:40:41;;;;;;;67.67;6.40;;;20.60;78.50;;;;;;5087540;28;20399;-84
2022/08/24 04:43:07;;;;;;;70.50;8.07;;;20.50;81.70;;;;;;5069509;28;20402;-84
2022/08/24 04:45:37;;;;;;;67.00;6.13;;;20.50;82.00;;;;;;5069575;28;20418;-85
2022/08/24 04:48:02;;;;;;;69.30;6.87;;;20.50;82.20;;;;;;5069896;28;20440;-84
2022/08/24 04:50:28;;;;;;;69.50;5.73;;;20.50;80.50;;;;;;5086418;28;20438;-84
2022/08/24 04:52:54;;;;;;;67.30;6.90;;;20.50;80.30;;;;;;5086580;28;20494;-85
2022/08/24 04:55:19;;;;;;;68.43;6.93;;;20.40;81.20;;;;;;5087371;28;20169;-84
2022/08/24 04:57:45;;;;;;;67.97;6.23;;;20.40;80.90;;;;;;5086460;28;20597;-84
2022/08/24 05:00:14;;;;;;;71.13;7.50;;;20.40;81.50;;;;;;5068541;28;20172;-84
2022/08/24 05:02:40;;;;;;;69.10;7.10;;;20.40;81.30;;;;;;5087145;28;20171;-84
2022/08/24 05:05:08;;;;;;;67.40;8.60;;;20.50;82.30;;;;;;5068461;28;20426;-84
2022/08/24 05:07:34;;;;;;;67.87;10.80;;;20.40;83.40;;;;;;5086095;28;20224;-84
2022/08/24 05:10:00;;;;;;;69.17;8.57;;;20.40;84.90;;;;;;5086779;28;20437;-84
2022/08/24 05:12:26;;;;;;;69.57;8.40;;;20.40;83.60;;;;;;5086241;28;20946;-84
2022/08/24 05:14:51;;;;;;;68.43;9.73;;;20.40;85.50;;;;;;5085579;28;20400;-85
2022/08/24 05:17:17;;;;;;;70.23;9.30;;;20.40;85.50;;;;;;5086394;28;20194;-84
2022/08/24 05:19:43;;;;;;;70.47;10.30;;;20.40;85.30;;;;;;5087091;28;20190;-84
2022/08/24 05:22:09;;;;;;;71.73;10.83;;;20.40;85.60;;;;;;5086552;28;20531;-84
2022/08/24 05:24:35;;;;;;;69.17;11.10;;;20.40;89.30;;;;;;5086211;28;20397;-85
2022/08/24 05:27:01;;;;;;;73.33;14.93;;;20.40;88.00;;;;;;5086810;28;20432;-85
2022/08/24 05:29:26;;;;;;;69.60;11.60;;;20.40;90.20;;;;;;5086874;28;20406;-84
2022/08/24 05:31:53;;;;;;;74.20;13.17;;;20.50;89.40;;;;;;5086819;28;20168;-84
2022/08/24 05:34:18;;;;;;;69.33;12.57;;;20.50;89.40;;;;;;5069293;28;20509;-84
2022/08/24 05:36:45;;;;;;;70.57;14.87;;;20.50;88.70;;;;;;5086987;28;20425;-84
2022/08/24 05:39:12;;;;;;;72.17;16.87;;;20.50;90.60;;;;;;5086015;28;20530;-84
2022/08/24 05:41:40;;;;;;;69.67;12.83;;;20.50;90.30;;;;;;5086612;28;20404;-84
2022/08/24 05:44:06;;;;;;;69.90;14.50;;;20.60;90.10;;;;;;5086112;28;20424;-84
2022/08/24 05:46:32;;;;;;;75.30;17.10;;;20.60;90.80;;;;;;5085697;28;20422;-85
2022/08/24 05:48:58;;;;;;;72.90;14.23;;;20.60;90.70;;;;;;5085994;28;20458;-84
2022/08/24 05:51:25;;;;;;;72.57;15.37;;;20.60;91.70;;;;;;5085580;28;20239;-84
2022/08/24 05:53:50;;;;;;;70.80;18.27;;;20.60;92.40;;;;;;5085575;28;20435;-84
2022/08/24 05:56:18;;;;;;;71.67;18.20;;;20.60;92.80;;;;;;5084064;28;20430;-84
2022/08/24 05:58:45;;;;;;;73.07;18.60;;;20.70;92.90;;;;;;5083690;28;20192;-84
2022/08/24 06:01:15;;;;;;;78.87;17.77;;;20.70;93.90;;;;;;5082792;28;20835;-84
2022/08/24 06:03:41;;;;;;;73.40;17.90;;;20.70;93.40;;;;;;5084702;28;20394;-84
2022/08/24 06:06:08;;;;;;;72.37;18.80;;;20.70;94.20;;;;;;5083969;28;20409;-84
2022/08/24 06:08:36;;;;;;;74.80;18.90;;;20.80;94.70;;;;;;5066232;28;20175;-84
2022/08/24 06:11:01;;;;;;;73.20;16.40;;;20.70;95.40;;;;;;5083140;28;20446;-84
2022/08/24 06:13:28;;;;;;;71.00;15.97;;;20.80;95.20;;;;;;5065731;28;20418;-84
2022/08/24 06:16:12;;;;;;;77.00;21.10;;;20.80;93.90;;;;;;5082834;28;20246;-84
2022/08/24 06:18:38;;;;;;;72.10;15.73;;;20.90;93.90;;;;;;5081636;28;20390;-84
2022/08/24 06:21:06;;;;;;;73.57;13.60;;;20.90;93.00;;;;;;5080246;28;20406;-84
2022/08/24 06:23:33;;;;;;;71.60;11.80;;;21.00;92.70;;;;;;5079661;28;20411;-84
2022/08/24 06:28:43;;;;;;;72.70;14.23;;;21.10;92.00;;;;;;5079050;28;20421;-85
2022/08/24 06:31:09;;;;;;;71.27;10.03;;;21.10;91.60;;;;;;5079861;28;20529;-84
2022/08/24 06:33:35;;;;;;;72.13;9.10;;;21.10;91.10;;;;;;5079397;28;20468;-84
2022/08/24 06:36:01;;;;;;;73.00;11.70;;;21.20;90.60;;;;;;5077974;28;20180;-84
2022/08/24 06:38:26;;;;;;;72.47;14.50;;;21.10;92.20;;;;;;5079992;28;20406;-84
2022/08/24 06:40:52;;;;;;;71.00;10.93;;;21.10;93.40;;;;;;5081050;28;20638;-84
2022/08/24 06:43:18;;;;;;;73.70;11.30;;;21.10;92.60;;;;;;5080359;28;20182;-84
2022/08/24 06:45:44;;;;;;;71.67;9.60;;;21.20;92.80;;;;;;5080393;28;20406;-84
2022/08/24 06:48:10;;;;;;;72.37;10.30;;;21.20;91.30;;;;;;5080225;28;20536;-84
2022/08/24 06:50:37;;;;;;;73.27;10.70;;;21.20;90.50;;;;;;5082135;28;20192;-84
2022/08/24 06:53:03;;;;;;;72.93;13.00;;;21.10;90.40;;;;;;5080106;28;20414;-84
2022/08/24 06:55:29;;;;;;;70.63;10.80;;;21.20;91.50;;;;;;5061582;28;20414;-84
2022/08/24 06:57:54;;;;;;;72.40;11.00;;;21.20;90.90;;;;;;5079064;28;20183;-84
2022/08/24 07:00:21;;;;;;;71.60;9.67;;;21.30;90.20;;;;;;5082344;28;20410;-84
2022/08/24 07:02:47;;;;;;;71.50;9.63;;;21.30;89.10;;;;;;5060948;28;20569;-84
2022/08/24 07:05:13;;;;;;;72.97;10.40;;;21.40;84.20;;;;;;5079932;28;20405;-84
2022/08/24 07:07:39;;;;;;;71.50;8.50;;;21.40;83.50;;;;;;5080234;28;20486;-84
2022/08/24 07:10:08;;;;;;;85.50;9.70;;;21.40;81.60;;;;;;5081685;28;20481;-84
2022/08/24 07:12:35;;;;;;;71.00;9.00;;;21.50;81.30;;;;;;5082095;28;20238;-84
2022/08/24 07:15:01;;;;;;;73.17;7.53;;;21.60;82.00;;;;;;5081048;28;20837;-84
2022/08/24 07:17:27;;;;;;;69.00;8.00;;;21.60;75.00;;;;;;5062218;28;20422;-84
2022/08/24 07:19:53;;;;;;;73.53;8.07;;;21.70;79.40;;;;;;5083978;28;20406;-84
2022/08/24 07:22:18;;;;;;;70.53;7.77;;;21.80;74.70;;;;;;5087926;28;20428;-84
2022/08/24 07:24:45;;;;;;;75.50;7.07;;;21.80;69.20;;;;;;5085749;28;20195;-84
2022/08/24 07:27:12;;;;;;;70.77;6.80;;;21.80;66.50;;;;;;5085246;28;20183;-85
2022/08/24 07:29:39;;;;;;;68.20;6.10;;;21.80;68.30;;;;;;5085933;28;20451;-84
2022/08/24 07:32:05;;;;;;;73.93;7.10;;;21.90;66.30;;;;;;5084679;28;20406;-84
2022/08/24 07:34:31;;;;;;;71.83;6.80;;;22.00;63.60;;;;;;5086836;28;20504;-84
2022/08/24 07:36:59;;;;;;;69.57;6.20;;;22.10;58.50;;;;;;5066429;28;20184;-83
2022/08/24 07:39:25;;;;;;;68.93;6.70;;;22.20;58.10;;;;;;5084464;28;20382;-83
2022/08/24 07:41:51;;;;;;;69.27;7.03;;;22.20;58.50;;;;;;5077234;28;20382;-83
2022/08/24 07:44:17;;;;;;;71.80;7.67;;;22.30;56.70;;;;;;5076443;28;20446;-83
2022/08/24 07:46:43;;;;;;;68.03;6.90;;;22.30;56.60;;;;;;5061403;28;20188;-83
2022/08/24 07:49:11;;;;;;;69.47;7.83;;;22.40;54.40;;;;;;5083241;28;20398;-82
2022/08/24 07:51:37;;;;;;;72.37;7.07;;;22.40;54.90;;;;;;5083646;28;21116;-83
2022/08/24 07:54:04;;;;;;;67.97;7.70;;;22.50;50.30;;;;;;5083120;28;20467;-83
2022/08/24 07:56:30;;;;;;;69.00;7.33;;;22.60;50.00;;;;;;5082550;28;20176;-83
2022/08/24 07:58:56;;;;;;;67.93;7.47;;;22.70;47.30;;;;;;5084562;28;20402;-83
2022/08/24 08:01:22;;;;;;;73.77;7.50;;;22.70;47.00;;;;;;5066406;28;20830;-83
2022/08/24 08:03:49;;;;;;;68.10;6.23;;;22.80;48.20;;;;;;5084949;28;20413;-83
2022/08/24 08:06:16;;;;;;;68.77;7.50;;;22.80;47.90;;;;;;5084531;28;20425;-83
2022/08/24 08:08:42;;;;;;;69.90;7.60;;;22.90;43.20;;;;;;5084215;28;20406;-83
2022/08/24 08:11:09;;;;;;;75.80;8.30;;;22.90;45.90;;;;;;5082956;28;20441;-83
2022/08/24 08:13:36;;;;;;;72.90;9.97;;;23.00;47.30;;;;;;5084611;28;20187;-83
2022/08/24 08:16:02;;;;;;;74.53;8.40;;;23.10;45.90;;;;;;5084124;28;20406;-83
2022/08/24 08:18:29;;;;;;;79.83;9.30;;;23.10;46.10;;;;;;5066081;28;20413;-83
2022/08/24 08:20:54;;;;;;;71.27;7.90;;;23.10;47.20;;;;;;5084436;28;20406;-83
2022/08/24 08:26:07;;;;;;;71.03;9.20;;;23.30;39.90;;;;;;5083791;28;20178;-83
2022/08/24 08:28:33;;;;;;;72.70;10.07;;;23.40;34.50;;;;;;5083415;28;20406;-82
2022/08/24 08:31:01;;;;;;;78.13;8.50;;;23.50;33.20;;;;;;5083038;28;20445;-83
2022/08/24 08:33:27;;;;;;;72.63;10.23;;;23.50;33.40;;;;;;5083570;28;20532;-83
2022/08/24 08:36:09;;;;;;;70.27;9.00;;;23.70;34.50;;;;;;5083304;28;20476;-83
2022/08/24 08:38:35;;;;;;;73.23;7.80;;;23.80;28.80;;;;;;5083658;28;20382;-83
2022/08/24 08:41:36;;;;;;;73.00;6.90;;;23.80;25.40;;;;;;5064670;28;20486;-83
2022/08/24 08:44:14;;;;;;;70.07;5.50;;;23.90;23.10;;;;;;5083376;28;20402;-83
2022/08/24 08:47:06;;;;;;;72.30;6.20;;;24.00;16.20;;;;;;5083237;28;20410;-83
2022/08/24 08:49:50;;;;;;;70.70;5.13;;;24.00;15.40;;;;;;5074268;28;20751;-83
2022/08/24 08:52:47;;;;;;;69.97;5.10;;;24.10;15.60;;;;;;5083282;28;20417;-83
2022/08/24 08:55:32;;;;;;;72.23;4.40;;;24.20;10.60;;;;;;5083369;28;20428;-83
2022/08/24 08:57:59;;;;;;;69.10;4.10;;;24.20;8.00;;;;;;5082847;28;20407;-83
2022/08/24 09:00:44;;;;;;;68.17;4.27;;;24.40;7.80;;;;;;5081435;28;20398;-83
2022/08/24 09:03:35;;;;;;;69.83;4.67;;;24.50;5.40;;;;;;5082583;28;20421;-83
2022/08/24 09:06:10;;;;;;;69.20;4.47;;;24.50;4.30;;;;;;5082464;28;20383;-83
2022/08/24 09:08:53;;;;;;;67.77;4.67;;;24.50;4.00;;;;;;5081329;28;20399;-82
2022/08/24 09:11:40;;;;;;;70.57;5.07;;;24.60;1.00;;;;;;5082114;28;20434;-83
2022/08/24 09:14:30;;;;;;;71.07;4.37;;;24.70;1.00;;;;;;5082538;28;20390;-83
2022/08/24 09:17:27;;;;;;;73.23;4.53;;;24.90;1.00;;;;;;5065765;28;20423;-83
2022/08/24 09:20:11;;;;;;;67.80;4.53;;;25.00;1.00;;;;;;5081103;28;20423;-83
2022/08/24 09:22:42;;;;;;;70.70;4.43;;;25.10;1.00;;;;;;5063377;28;20412;-83
2022/08/24 09:25:53;;;;;;;68.00;4.67;;;25.30;1.00;;;;;;5081507;28;20401;-83
2022/08/24 09:28:43;;;;;;;72.37;4.17;;;25.40;1.00;;;;;;5020838;28;20407;-83
2022/08/24 09:31:22;;;;;;;69.20;4.20;;;25.40;1.00;;;;;;5079879;28;20440;-83
2022/08/24 09:34:16;;;;;;;70.50;4.10;;;25.60;1.00;;;;;;5081966;28;20758;-83
2022/08/24 09:37:01;;;;;;;68.53;4.40;;;25.70;1.00;;;;;;5081565;28;20433;-83
2022/08/24 09:39:42;;;;;;;68.70;4.30;;;25.90;1.00;;;;;;5082166;28;20407;-83
2022/08/24 09:42:29;;;;;;;67.50;4.37;;;26.00;1.00;;;;;;5082127;28;20585;-83
2022/08/24 09:45:12;;;;;;;66.93;4.40;;;26.00;1.00;;;;;;5081185;28;20385;-84
2022/08/24 09:47:50;;;;;;;69.07;4.77;;;26.10;1.00;;;;;;5062354;28;20430;-83
2022/08/24 09:50:40;;;;;;;69.07;3.90;;;26.30;1.00;;;;;;5081289;28;20426;-84
2022/08/24 09:53:23;;;;;;;71.63;4.67;;;26.30;1.00;;;;;;5061844;28;20751;-83
2022/08/24 09:56:08;;;;;;;68.70;4.67;;;26.50;1.00;;;;;;5081001;28;20390;-83
2022/08/24 09:58:56;;;;;;;74.57;4.90;;;26.60;1.00;;;;;;5080496;28;20475;-84
2022/08/24 10:01:25;;;;;;;67.37;4.40;;;26.80;1.00;;;;;;5062410;28;20407;-83
2022/08/24 10:04:12;;;;;;;70.50;4.30;;;27.00;1.00;;;;;;5080440;28;20398;-83
2022/08/24 10:06:56;;;;;;;68.30;4.20;;;27.20;1.00;;;;;;5080954;28;20456;-83
2022/08/24 10:10:09;;;;;;;76.33;4.87;;;27.40;1.00;;;;;;5080685;28;20408;-83
2022/08/24 10:12:45;;;;;;;73.40;4.50;;;27.50;1.00;;;;;;5079716;28;20453;-83
2022/08/24 10:15:17;;;;;;;70.57;4.00;;;27.60;1.00;;;;;;5079886;28;20466;-83
2022/08/24 10:18:20;;;;;;;71.60;4.73;;;27.80;1.00;;;;;;5079461;28;20832;-83
2022/08/24 10:21:23;;;;;;;76.03;4.03;;;28.00;1.00;;;;;;5078904;28;20401;-83
2022/08/24 10:24:16;;;;;;;68.80;4.63;;;28.10;1.00;;;;;;5061397;28;20394;-83
2022/08/24 10:27:05;;;;;;;76.80;4.70;;;28.10;1.00;;;;;;5078679;28;20517;-83
2022/08/24 10:29:43;;;;;;;70.10;4.17;;;28.50;1.00;;;;;;5079047;28;20814;-83
2022/08/24 10:32:46;;;;;;;75.67;4.53;;;28.70;1.00;;;;;;5078099;28;20402;-83
2022/08/24 10:35:23;;;;;;;69.23;3.57;;;28.90;1.00;;;;;;5078520;28;20931;-83
2022/08/24 10:41:15;;;;;;;70.17;4.33;;;29.30;1.00;;;;;;5078647;28;20370;-83
2022/08/24 10:44:03;;;;;;;70.47;5.13;;;29.30;1.00;;;;;;5078926;28;20485;-83
2022/08/24 10:46:37;;;;;;;69.37;5.30;;;29.60;1.00;;;;;;5078429;28;20426;-83
2022/08/24 10:49:09;;;;;;;68.70;5.73;;;29.80;1.00;;;;;;5079207;28;20389;-83
2022/08/24 10:51:59;;;;;;;68.40;4.67;;;30.00;1.00;;;;;;5080321;28;20469;-83
2022/08/24 10:54:26;;;;;;;68.80;4.73;;;29.90;1.00;;;;;;5062248;28;20478;-83
2022/08/24 10:57:04;;;;;;;71.37;5.33;;;30.30;1.00;;;;;;5061157;28;20830;-83
2022/08/24 10:59:40;;;;;;;68.80;4.90;;;30.50;1.00;;;;;;5078717;28;20403;-83
2022/08/24 11:02:10;;;;;;;69.83;3.93;;;30.50;1.00;;;;;;5079920;28;20382;-83
2022/08/24 11:04:38;;;;;;;69.80;3.27;;;30.80;1.00;;;;;;5077939;28;20739;-83
2022/08/24 11:07:06;;;;;;;75.13;3.90;;;30.70;1.00;;;;;;5078169;28;20983;-83
2022/08/24 11:10:07;;;;;;;70.40;4.77;;;30.50;1.00;;;;;;5078067;28;20403;-83
2022/08/24 11:12:43;;;;;;;69.77;3.90;;;30.60;1.00;;;;;;5066515;28;20486;-83
2022/08/24 11:15:09;;;;;;;69.87;4.17;;;30.80;1.00;;;;;;5077489;28;20431;-83
2022/08/24 11:17:36;;;;;;;69.07;4.63;;;31.10;1.00;;;;;;5077980;28;20435;-83
2022/08/24 11:20:23;;;;;;;67.80;4.77;;;31.30;1.00;;;;;;5077500;28;20653;-83
2022/08/24 11:23:19;;;;;;;67.47;4.47;;;31.40;1.00;;;;;;5078130;28;20394;-83
2022/08/24 11:25:53;;;;;;;68.93;3.43;;;31.80;1.00;;;;;;5081138;28;20454;-83
2022/08/24 11:28:31;;;;;;;73.27;3.47;;;31.90;1.00;;;;;;5080733;28;20430;-83
2022/08/24 11:30:57;;;;;;;67.63;2.87;;;32.00;1.00;;;;;;5081491;28;20417;-83
2022/08/24 11:33:26;;;;;;;72.10;3.00;;;32.00;1.00;;;;;;5081263;28;20762;-83
2022/08/24 11:35:51;;;;;;;67.10;3.10;;;32.20;1.00;;;;;;5081200;28;20516;-83
2022/08/24 11:38:29;;;;;;;68.77;3.10;;;32.00;1.00;;;;;;5080768;28;20584;-83
2022/08/24 11:41:21;;;;;;;69.47;2.83;;;32.30;1.00;;;;;;5080859;28;20488;-83
2022/08/24 11:44:08;;;;;;;68.03;2.97;;;32.50;1.00;;;;;;5080733;28;20382;-83
2022/08/24 11:47:06;;;;;;;69.87;2.83;;;32.30;1.00;;;;;;5080023;28;20470;-83
2022/08/24 11:49:53;;;;;;;69.23;2.60;;;32.40;1.00;;;;;;5079845;28;20378;-83
2022/08/24 11:52:50;;;;;;;68.30;3.20;;;32.40;1.00;;;;;;5080087;28;20780;-83
2022/08/24 11:55:47;;;;;;;69.13;2.60;;;32.60;1.00;;;;;;5080530;28;20420;-83
2022/08/24 11:58:22;;;;;;;69.93;3.00;;;33.00;1.00;;;;;;5079633;28;20413;-83
2022/08/24 12:00:56;;;;;;;69.10;3.87;;;33.20;1.00;;;;;;5079682;28;20374;-83
2022/08/24 12:03:34;;;;;;;69.03;4.33;;;33.50;1.00;;;;;;5079831;28;20386;-83
2022/08/24 12:06:37;;;;;;;71.10;5.97;;;33.10;1.00;;;;;;5079505;28;20481;-83
2022/08/24 12:09:36;;;;;;;70.20;6.27;;;33.40;1.00;;;;;;5079354;28;20390;-83
2022/08/24 12:12:22;;;;;;;68.53;5.80;;;33.20;1.00;;;;;;5078675;28;20441;-83
2022/08/24 12:15:06;;;;;;;71.23;6.97;;;33.00;1.00;;;;;;5079360;28;20383;-83
2022/08/24 12:17:41;;;;;;;69.07;6.13;;;32.60;1.00;;;;;;5079495;28;20775;-82
2022/08/24 12:20:35;;;;;;;70.87;4.37;;;32.70;1.00;;;;;;5079593;28;20888;-82
2022/08/24 12:23:18;;;;;;;74.10;4.63;;;33.00;1.00;;;;;;5072627;28;20422;-82
2022/08/24 12:26:00;;;;;;;71.60;3.93;;;33.00;1.00;;;;;;5061053;28;20410;-82
2022/08/24 12:28:44;;;;;;;68.80;5.50;;;33.00;1.00;;;;;;5079035;28;21026;-82
2022/08/24 12:31:19;;;;;;;69.50;3.90;;;33.30;1.00;;;;;;5079134;28;20430;-82
2022/08/24 12:33:50;;;;;;;68.20;3.30;;;33.40;1.00;;;;;;5078281;28;20418;-82
2022/08/24 12:36:37;;;;;;;68.47;2.70;;;33.20;1.00;;;;;;5078904;28;20422;-82
2022/08/24 12:39:25;;;;;;;70.30;3.30;;;33.30;1.00;;;;;;5079773;28;20375;-82
2022/08/24 12:42:05;;;;;;;69.47;2.83;;;33.20;1.00;;;;;;5079006;28;20387;-82
2022/08/24 12:44:51;;;;;;;69.77;2.30;;;33.00;1.00;;;;;;5079148;28;20391;-83
2022/08/24 12:47:40;;;;;;;68.67;3.00;;;33.20;1.00;;;;;;5079859;28;20426;-82
2022/08/24 12:50:32;;;;;;;68.40;2.30;;;33.50;1.00;;;;;;5078501;28;20445;-82
2022/08/24 12:53:10;;;;;;;74.80;2.70;;;33.30;1.00;;;;;;5078056;28;20921;-82
2022/08/24 12:55:55;;;;;;;68.00;2.70;;;33.20;1.00;;;;;;5079194;28;20387;-82
2022/08/24 12:58:53;;;;;;;68.07;2.63;;;33.50;1.00;;;;;;5078871;28;20872;-82
2022/08/24 13:01:20;;;;;;;71.43;2.33;;;33.40;1.00;;;;;;5078117;28;20397;-82
2022/08/24 13:04:00;;;;;;;70.03;2.80;;;33.60;1.00;;;;;;5078502;28;20939;-82
2022/08/24 13:06:36;;;;;;;69.70;2.70;;;33.70;1.00;;;;;;5078127;28;20836;-83
2022/08/24 13:09:27;;;;;;;67.63;2.57;;;33.80;1.00;;;;;;5078017;28;20399;-82
2022/08/24 13:11:55;;;;;;;67.53;2.30;;;33.80;1.00;;;;;;5046113;28;20488;-83
2022/08/24 13:14:23;;;;;;;68.80;2.80;;;33.70;1.00;;;;;;5060964;28;20436;-82
2022/08/24 13:16:50;;;;;;;68.70;3.00;;;33.50;1.00;;;;;;5077308;28;20450;-82